sensor_id;sensor_type;location;lat;lon;timestamp;temperature;humidity
27506;DHT22;14939;43.596;1.320;2023-06-14T00:01:24;16.80;99.90
27506;DHT22;14939;43.596;1.320;2023-06-14T00:03:50;16.80;99.90
27506;DHT22;14939;43.596;1.320;2023-06-14T00:06:16;16.80;99.90
27506;DHT22;14939;43.596;1.320;2023-06-14T00:08:42;16.80;99.90
27506;DHT22;14939;43.596;1.320;2023-06-14T00:11:08;16.80;99.90
27506;DHT22;14939;43.596;1.320;2023-06-14T00:13:34;16.80;99.90
27506;DHT22;14939;43.596;1.320;2023-06-14T00:16:00;16.80;99.90
27506;DHT22;14939;43.596;1.320;2023-06-14T00:18:25;16.90;99.90
27506;DHT22;14939;43.596;1.320;2023-06-14T00:20:55;16.90;99.90
27506;DHT22;14939;43.596;1.320;2023-06-14T00:23:21;16.90;99.90
27506;DHT22;14939;43.596;1.320;2023-06-14T00:25:47;16.90;99.90
27506;DHT22;14939;43.596;1.320;2023-06-14T00:28:13;16.90;99.90
27506;DHT22;14939;43.596;1.320;2023-06-14T00:30:38;17.00;99.90
27506;DHT22;14939;43.596;1.320;2023-06-14T00:33:04;17.00;99.90
27506;DHT22;14939;43.596;1.320;2023-06-14T00:35:30;16.90;99.90
27506;DHT22;14939;43.596;1.320;2023-06-14T00:37:56;17.00;99.90
27506;DHT22;14939;43.596;1.320;2023-06-14T00:40:22;17.20;99.90
27506;DHT22;14939;43.596;1.320;2023-06-14T00:42:47;17.20;99.90
27506;DHT22;14939;43.596;1.320;2023-06-14T00:45:13;17.30;99.90
27506;DHT22;14939;43.596;1.320;2023-06-14T00:47:41;17.30;99.90
27506;DHT22;14939;43.596;1.320;2023-06-14T00:50:07;17.30;99.90
27506;DHT22;14939;43.596;1.320;2023-06-14T00:52:34;17.40;99.90
27506;DHT22;14939;43.596;1.320;2023-06-14T00:55:00;17.30;99.90
27506;DHT22;14939;43.596;1.320;2023-06-14T00:57:27;17.40;99.90
27506;DHT22;14939;43.596;1.320;2023-06-14T00:59:52;17.40;99.90
27506;DHT22;14939;43.596;1.320;2023-06-14T01:02:18;17.40;99.90
27506;DHT22;14939;43.596;1.320;2023-06-14T01:04:47;17.40;99.90
27506;DHT22;14939;43.596;1.320;2023-06-14T01:15:13;17.40;99.90
27506;DHT22;14939;43.596;1.320;2023-06-14T01:17:41;17.40;99.90
27506;DHT22;14939;43.596;1.320;2023-06-14T01:20:11;17.40;99.90
27506;DHT22;14939;43.596;1.320;2023-06-14T01:22:58;17.40;99.90
27506;DHT22;14939;43.596;1.320;2023-06-14T01:25:24;17.50;99.90
27506;DHT22;14939;43.596;1.320;2023-06-14T01:27:53;17.40;99.90
27506;DHT22;14939;43.596;1.320;2023-06-14T01:30:21;17.50;99.90
27506;DHT22;14939;43.596;1.320;2023-06-14T01:32:49;17.40;99.90
27506;DHT22;14939;43.596;1.320;2023-06-14T01:35:16;17.40;99.90
27506;DHT22;14939;43.596;1.320;2023-06-14T01:37:42;17.40;99.90
27506;DHT22;14939;43.596;1.320;2023-06-14T01:40:10;17.40;99.90
27506;DHT22;14939;43.596;1.320;2023-06-14T01:42:38;17.40;99.90
27506;DHT22;14939;43.596;1.320;2023-06-14T01:45:06;17.40;99.90
27506;DHT22;14939;43.596;1.320;2023-06-14T01:47:33;17.40;99.90
27506;DHT22;14939;43.596;1.320;2023-06-14T01:49:59;17.30;99.90
27506;DHT22;14939;43.596;1.320;2023-06-14T01:52:24;17.30;99.90
27506;DHT22;14939;43.596;1.320;2023-06-14T01:54:51;17.30;99.90
27506;DHT22;14939;43.596;1.320;2023-06-14T01:57:16;17.30;99.90
27506;DHT22;14939;43.596;1.320;2023-06-14T01:59:42;17.30;99.90
27506;DHT22;14939;43.596;1.320;2023-06-14T02:02:08;17.30;99.90
27506;DHT22;14939;43.596;1.320;2023-06-14T02:04:34;17.30;99.90
27506;DHT22;14939;43.596;1.320;2023-06-14T02:07:00;17.30;99.90
27506;DHT22;14939;43.596;1.320;2023-06-14T02:09:25;17.20;99.90
27506;DHT22;14939;43.596;1.320;2023-06-14T02:11:51;17.20;99.90
27506;DHT22;14939;43.596;1.320;2023-06-14T02:14:17;17.20;99.90
27506;DHT22;14939;43.596;1.320;2023-06-14T02:16:43;17.10;99.90
27506;DHT22;14939;43.596;1.320;2023-06-14T02:19:16;17.10;99.90
27506;DHT22;14939;43.596;1.320;2023-06-14T02:21:43;17.10;99.90
27506;DHT22;14939;43.596;1.320;2023-06-14T02:24:08;17.10;99.90
27506;DHT22;14939;43.596;1.320;2023-06-14T02:26:34;17.00;99.90
27506;DHT22;14939;43.596;1.320;2023-06-14T02:29:00;17.00;99.90
27506;DHT22;14939;43.596;1.320;2023-06-14T02:31:26;16.90;99.90
27506;DHT22;14939;43.596;1.320;2023-06-14T02:33:52;17.00;99.90
27506;DHT22;14939;43.596;1.320;2023-06-14T02:36:18;17.00;99.90
27506;DHT22;14939;43.596;1.320;2023-06-14T02:38:44;17.00;99.90
27506;DHT22;14939;43.596;1.320;2023-06-14T02:41:10;17.00;99.90
27506;DHT22;14939;43.596;1.320;2023-06-14T02:43:36;17.00;99.90
27506;DHT22;14939;43.596;1.320;2023-06-14T02:46:02;17.00;99.90
27506;DHT22;14939;43.596;1.320;2023-06-14T02:48:28;16.90;99.90
27506;DHT22;14939;43.596;1.320;2023-06-14T02:50:53;17.00;99.90
27506;DHT22;14939;43.596;1.320;2023-06-14T02:53:19;16.90;99.90
27506;DHT22;14939;43.596;1.320;2023-06-14T02:55:45;16.90;99.90
27506;DHT22;14939;43.596;1.320;2023-06-14T02:58:12;16.90;99.90
27506;DHT22;14939;43.596;1.320;2023-06-14T03:00:38;17.00;99.90
27506;DHT22;14939;43.596;1.320;2023-06-14T03:03:06;16.90;99.90
27506;DHT22;14939;43.596;1.320;2023-06-14T03:05:45;16.90;99.90
27506;DHT22;14939;43.596;1.320;2023-06-14T03:08:13;16.90;99.90
27506;DHT22;14939;43.596;1.320;2023-06-14T03:10:49;16.90;99.90
27506;DHT22;14939;43.596;1.320;2023-06-14T03:13:17;16.90;99.90
27506;DHT22;14939;43.596;1.320;2023-06-14T03:15:46;16.90;99.90
27506;DHT22;14939;43.596;1.320;2023-06-14T03:18:13;16.90;99.90
27506;DHT22;14939;43.596;1.320;2023-06-14T03:20:40;16.90;99.90
27506;DHT22;14939;43.596;1.320;2023-06-14T03:23:14;16.90;99.90
27506;DHT22;14939;43.596;1.320;2023-06-14T03:25:43;16.90;99.90
27506;DHT22;14939;43.596;1.320;2023-06-14T03:28:12;16.90;99.90
27506;DHT22;14939;43.596;1.320;2023-06-14T03:30:37;16.80;99.90
27506;DHT22;14939;43.596;1.320;2023-06-14T03:33:03;16.80;99.90
27506;DHT22;14939;43.596;1.320;2023-06-14T03:35:30;16.90;99.90
27506;DHT22;14939;43.596;1.320;2023-06-14T03:37:55;16.90;99.90
27506;DHT22;14939;43.596;1.320;2023-06-14T03:40:21;16.90;99.90
27506;DHT22;14939;43.596;1.320;2023-06-14T03:42:47;16.90;99.90
27506;DHT22;14939;43.596;1.320;2023-06-14T03:45:13;16.90;99.90
27506;DHT22;14939;43.596;1.320;2023-06-14T03:47:38;16.90;99.90
27506;DHT22;14939;43.596;1.320;2023-06-14T03:50:05;17.00;99.90
27506;DHT22;14939;43.596;1.320;2023-06-14T03:52:31;17.00;99.90
27506;DHT22;14939;43.596;1.320;2023-06-14T03:54:58;17.00;99.90
27506;DHT22;14939;43.596;1.320;2023-06-14T03:57:25;17.00;99.90
27506;DHT22;14939;43.596;1.320;2023-06-14T03:59:51;17.00;99.90
27506;DHT22;14939;43.596;1.320;2023-06-14T04:02:17;17.00;99.90
27506;DHT22;14939;43.596;1.320;2023-06-14T04:04:44;17.10;99.90
27506;DHT22;14939;43.596;1.320;2023-06-14T04:07:14;17.10;99.90
27506;DHT22;14939;43.596;1.320;2023-06-14T04:09:40;17.20;99.90
27506;DHT22;14939;43.596;1.320;2023-06-14T04:12:07;17.20;99.90
27506;DHT22;14939;43.596;1.320;2023-06-14T04:14:34;17.20;99.90
27506;DHT22;14939;43.596;1.320;2023-06-14T04:17:00;17.30;99.90
27506;DHT22;14939;43.596;1.320;2023-06-14T04:19:26;17.30;99.90
27506;DHT22;14939;43.596;1.320;2023-06-14T04:21:52;17.30;99.90
27506;DHT22;14939;43.596;1.320;2023-06-14T04:24:18;17.30;99.90
27506;DHT22;14939;43.596;1.320;2023-06-14T04:26:44;17.30;99.90
27506;DHT22;14939;43.596;1.320;2023-06-14T04:29:11;17.40;99.90
27506;DHT22;14939;43.596;1.320;2023-06-14T04:31:40;17.30;99.90
27506;DHT22;14939;43.596;1.320;2023-06-14T04:34:06;17.30;99.90
27506;DHT22;14939;43.596;1.320;2023-06-14T04:36:33;17.30;99.90
27506;DHT22;14939;43.596;1.320;2023-06-14T04:39:01;17.40;99.90
27506;DHT22;14939;43.596;1.320;2023-06-14T04:41:32;17.40;99.90
27506;DHT22;14939;43.596;1.320;2023-06-14T04:43:58;17.40;99.90
27506;DHT22;14939;43.596;1.320;2023-06-14T04:46:30;17.40;99.90
27506;DHT22;14939;43.596;1.320;2023-06-14T04:48:57;17.40;99.90
27506;DHT22;14939;43.596;1.320;2023-06-14T04:51:28;17.40;99.90
27506;DHT22;14939;43.596;1.320;2023-06-14T04:53:58;17.50;99.90
27506;DHT22;14939;43.596;1.320;2023-06-14T04:56:27;17.50;99.90
27506;DHT22;14939;43.596;1.320;2023-06-14T04:58:52;17.50;99.90
27506;DHT22;14939;43.596;1.320;2023-06-14T05:01:19;17.50;99.90
27506;DHT22;14939;43.596;1.320;2023-06-14T05:03:46;17.50;99.90
27506;DHT22;14939;43.596;1.320;2023-06-14T05:06:15;17.50;99.90
27506;DHT22;14939;43.596;1.320;2023-06-14T05:08:41;17.50;99.90
27506;DHT22;14939;43.596;1.320;2023-06-14T05:11:07;17.60;99.90
27506;DHT22;14939;43.596;1.320;2023-06-14T05:13:32;17.60;99.90
27506;DHT22;14939;43.596;1.320;2023-06-14T05:15:59;17.70;99.90
27506;DHT22;14939;43.596;1.320;2023-06-14T05:18:26;17.70;99.90
27506;DHT22;14939;43.596;1.320;2023-06-14T05:20:51;17.70;99.90
27506;DHT22;14939;43.596;1.320;2023-06-14T05:23:17;17.70;99.90
27506;DHT22;14939;43.596;1.320;2023-06-14T05:25:44;17.80;99.90
27506;DHT22;14939;43.596;1.320;2023-06-14T05:28:10;17.80;99.90
27506;DHT22;14939;43.596;1.320;2023-06-14T05:30:38;17.90;99.90
27506;DHT22;14939;43.596;1.320;2023-06-14T05:33:05;17.90;99.90
27506;DHT22;14939;43.596;1.320;2023-06-14T05:35:30;17.90;99.90
27506;DHT22;14939;43.596;1.320;2023-06-14T05:37:56;18.00;99.90
27506;DHT22;14939;43.596;1.320;2023-06-14T05:40:22;18.00;99.90
27506;DHT22;14939;43.596;1.320;2023-06-14T05:42:47;18.00;99.90
27506;DHT22;14939;43.596;1.320;2023-06-14T05:45:13;18.00;99.90
27506;DHT22;14939;43.596;1.320;2023-06-14T05:47:41;18.00;99.90
27506;DHT22;14939;43.596;1.320;2023-06-14T05:50:07;18.00;99.90
27506;DHT22;14939;43.596;1.320;2023-06-14T05:52:34;18.00;99.90
27506;DHT22;14939;43.596;1.320;2023-06-14T05:54:59;18.00;99.90
27506;DHT22;14939;43.596;1.320;2023-06-14T05:57:25;18.00;99.90
27506;DHT22;14939;43.596;1.320;2023-06-14T05:59:51;18.00;99.90
27506;DHT22;14939;43.596;1.320;2023-06-14T06:02:16;18.00;99.90
27506;DHT22;14939;43.596;1.320;2023-06-14T06:04:42;18.00;99.90
27506;DHT22;14939;43.596;1.320;2023-06-14T06:07:08;18.00;99.90
27506;DHT22;14939;43.596;1.320;2023-06-14T06:09:33;18.00;99.90
27506;DHT22;14939;43.596;1.320;2023-06-14T06:11:59;18.00;99.90
27506;DHT22;14939;43.596;1.320;2023-06-14T06:14:25;18.10;99.90
27506;DHT22;14939;43.596;1.320;2023-06-14T06:16:50;18.10;99.90
27506;DHT22;14939;43.596;1.320;2023-06-14T06:19:18;18.10;99.90
27506;DHT22;14939;43.596;1.320;2023-06-14T06:21:44;18.20;99.90
27506;DHT22;14939;43.596;1.320;2023-06-14T06:24:09;18.20;99.90
27506;DHT22;14939;43.596;1.320;2023-06-14T06:26:35;18.20;99.90
27506;DHT22;14939;43.596;1.320;2023-06-14T06:29:01;18.20;99.90
27506;DHT22;14939;43.596;1.320;2023-06-14T06:31:27;18.30;99.90
27506;DHT22;14939;43.596;1.320;2023-06-14T06:33:54;18.30;99.90
27506;DHT22;14939;43.596;1.320;2023-06-14T06:36:20;18.30;99.90
27506;DHT22;14939;43.596;1.320;2023-06-14T06:38:47;18.30;99.90
27506;DHT22;14939;43.596;1.320;2023-06-14T06:41:13;18.40;99.90
27506;DHT22;14939;43.596;1.320;2023-06-14T06:43:38;18.40;99.90
27506;DHT22;14939;43.596;1.320;2023-06-14T06:46:04;18.50;99.90
27506;DHT22;14939;43.596;1.320;2023-06-14T06:48:30;18.50;99.90
27506;DHT22;14939;43.596;1.320;2023-06-14T06:50:56;18.60;99.90
27506;DHT22;14939;43.596;1.320;2023-06-14T06:53:22;18.70;99.90
27506;DHT22;14939;43.596;1.320;2023-06-14T06:55:48;18.70;99.90
27506;DHT22;14939;43.596;1.320;2023-06-14T06:58:14;18.80;99.90
27506;DHT22;14939;43.596;1.320;2023-06-14T07:00:39;18.80;99.90
27506;DHT22;14939;43.596;1.320;2023-06-14T07:03:05;18.90;99.90
27506;DHT22;14939;43.596;1.320;2023-06-14T07:05:31;18.90;99.90
27506;DHT22;14939;43.596;1.320;2023-06-14T07:07:57;19.10;99.90
27506;DHT22;14939;43.596;1.320;2023-06-14T07:10:23;19.10;99.90
27506;DHT22;14939;43.596;1.320;2023-06-14T07:12:53;19.20;99.90
27506;DHT22;14939;43.596;1.320;2023-06-14T07:15:18;19.50;99.90
27506;DHT22;14939;43.596;1.320;2023-06-14T07:17:44;19.80;99.40
27506;DHT22;14939;43.596;1.320;2023-06-14T07:20:10;19.80;98.60
27506;DHT22;14939;43.596;1.320;2023-06-14T07:22:43;19.90;98.20
27506;DHT22;14939;43.596;1.320;2023-06-14T07:25:12;19.80;98.20
27506;DHT22;14939;43.596;1.320;2023-06-14T07:27:41;19.70;98.30
27506;DHT22;14939;43.596;1.320;2023-06-14T07:30:08;19.50;99.00
27506;DHT22;14939;43.596;1.320;2023-06-14T07:32:34;19.50;99.90
27506;DHT22;14939;43.596;1.320;2023-06-14T07:35:00;19.40;99.60
27506;DHT22;14939;43.596;1.320;2023-06-14T07:37:25;19.40;99.60
27506;DHT22;14939;43.596;1.320;2023-06-14T07:39:51;19.30;99.90
27506;DHT22;14939;43.596;1.320;2023-06-14T07:42:17;19.50;99.90
27506;DHT22;14939;43.596;1.320;2023-06-14T07:44:42;19.50;99.60
27506;DHT22;14939;43.596;1.320;2023-06-14T07:47:08;19.60;99.30
27506;DHT22;14939;43.596;1.320;2023-06-14T07:49:33;19.70;98.90
27506;DHT22;14939;43.596;1.320;2023-06-14T07:51:59;19.90;98.00
27506;DHT22;14939;43.596;1.320;2023-06-14T07:54:25;19.80;97.40
27506;DHT22;14939;43.596;1.320;2023-06-14T07:56:52;19.70;98.00
27506;DHT22;14939;43.596;1.320;2023-06-14T07:59:18;19.70;98.50
27506;DHT22;14939;43.596;1.320;2023-06-14T08:01:43;19.50;98.50
27506;DHT22;14939;43.596;1.320;2023-06-14T08:04:16;19.40;99.40
27506;DHT22;14939;43.596;1.320;2023-06-14T08:06:42;19.50;98.90
27506;DHT22;14939;43.596;1.320;2023-06-14T08:09:12;19.50;98.90
27506;DHT22;14939;43.596;1.320;2023-06-14T08:11:38;19.50;99.30
27506;DHT22;14939;43.596;1.320;2023-06-14T08:14:04;19.60;98.60
27506;DHT22;14939;43.596;1.320;2023-06-14T08:16:29;19.90;98.30
27506;DHT22;14939;43.596;1.320;2023-06-14T08:18:55;19.90;97.70
27506;DHT22;14939;43.596;1.320;2023-06-14T08:21:21;19.90;97.30
27506;DHT22;14939;43.596;1.320;2023-06-14T08:23:47;20.00;97.20
27506;DHT22;14939;43.596;1.320;2023-06-14T08:26:13;20.10;96.90
27506;DHT22;14939;43.596;1.320;2023-06-14T08:28:38;20.40;96.30
27506;DHT22;14939;43.596;1.320;2023-06-14T08:31:04;20.60;95.00
27506;DHT22;14939;43.596;1.320;2023-06-14T08:33:30;20.60;94.80
27506;DHT22;14939;43.596;1.320;2023-06-14T08:35:58;20.50;93.80
27506;DHT22;14939;43.596;1.320;2023-06-14T08:38:24;20.40;94.30
27506;DHT22;14939;43.596;1.320;2023-06-14T08:40:50;20.40;93.50
27506;DHT22;14939;43.596;1.320;2023-06-14T08:43:17;20.50;93.80
27506;DHT22;14939;43.596;1.320;2023-06-14T08:45:42;20.70;93.60
27506;DHT22;14939;43.596;1.320;2023-06-14T08:48:08;20.90;92.70
27506;DHT22;14939;43.596;1.320;2023-06-14T08:50:36;21.00;91.40
27506;DHT22;14939;43.596;1.320;2023-06-14T08:53:02;20.80;92.10
27506;DHT22;14939;43.596;1.320;2023-06-14T08:55:29;20.70;92.70
27506;DHT22;14939;43.596;1.320;2023-06-14T08:57:56;20.70;93.00
27506;DHT22;14939;43.596;1.320;2023-06-14T09:00:26;20.70;92.50
27506;DHT22;14939;43.596;1.320;2023-06-14T09:02:53;20.80;91.60
27506;DHT22;14939;43.596;1.320;2023-06-14T09:05:26;20.70;91.60
27506;DHT22;14939;43.596;1.320;2023-06-14T09:07:53;20.70;91.70
27506;DHT22;14939;43.596;1.320;2023-06-14T09:10:22;20.90;90.60
27506;DHT22;14939;43.596;1.320;2023-06-14T09:12:48;21.20;90.60
27506;DHT22;14939;43.596;1.320;2023-06-14T09:15:14;21.30;88.80
27506;DHT22;14939;43.596;1.320;2023-06-14T09:17:41;21.10;88.30
27506;DHT22;14939;43.596;1.320;2023-06-14T09:20:08;21.30;88.70
27506;DHT22;14939;43.596;1.320;2023-06-14T09:22:39;21.30;88.70
27506;DHT22;14939;43.596;1.320;2023-06-14T09:25:05;21.60;86.30
27506;DHT22;14939;43.596;1.320;2023-06-14T09:27:32;21.80;86.20
27506;DHT22;14939;43.596;1.320;2023-06-14T09:29:58;21.70;84.60
27506;DHT22;14939;43.596;1.320;2023-06-14T09:32:24;21.40;87.10
27506;DHT22;14939;43.596;1.320;2023-06-14T09:34:50;21.50;86.30
27506;DHT22;14939;43.596;1.320;2023-06-14T09:37:29;21.70;85.30
27506;DHT22;14939;43.596;1.320;2023-06-14T09:39:55;21.70;85.30
27506;DHT22;14939;43.596;1.320;2023-06-14T09:42:21;21.80;83.70
27506;DHT22;14939;43.596;1.320;2023-06-14T09:44:50;22.00;84.30
27506;DHT22;14939;43.596;1.320;2023-06-14T09:47:16;22.20;81.40
27506;DHT22;14939;43.596;1.320;2023-06-14T09:49:42;22.20;81.40
27506;DHT22;14939;43.596;1.320;2023-06-14T09:52:19;22.30;79.80
27506;DHT22;14939;43.596;1.320;2023-06-14T09:54:46;22.10;79.60
27506;DHT22;14939;43.596;1.320;2023-06-14T09:57:13;22.00;79.60
27506;DHT22;14939;43.596;1.320;2023-06-14T09:59:46;21.90;81.00
27506;DHT22;14939;43.596;1.320;2023-06-14T10:04:53;22.70;76.10
27506;DHT22;14939;43.596;1.320;2023-06-14T10:07:20;23.20;70.80
27506;DHT22;14939;43.596;1.320;2023-06-14T10:09:47;23.40;68.30
27506;DHT22;14939;43.596;1.320;2023-06-14T10:12:17;23.20;68.80
27506;DHT22;14939;43.596;1.320;2023-06-14T10:14:48;22.90;68.60
27506;DHT22;14939;43.596;1.320;2023-06-14T10:17:25;23.00;70.10
27506;DHT22;14939;43.596;1.320;2023-06-14T10:19:58;22.90;70.60
27506;DHT22;14939;43.596;1.320;2023-06-14T10:22:41;23.00;68.40
27506;DHT22;14939;43.596;1.320;2023-06-14T10:25:12;23.10;66.60
27506;DHT22;14939;43.596;1.320;2023-06-14T10:27:38;22.80;69.10
27506;DHT22;14939;43.596;1.320;2023-06-14T10:30:07;22.50;70.20
27506;DHT22;14939;43.596;1.320;2023-06-14T10:32:33;22.80;69.40
27506;DHT22;14939;43.596;1.320;2023-06-14T10:35:06;23.50;66.40
27506;DHT22;14939;43.596;1.320;2023-06-14T10:37:34;23.90;65.20
27506;DHT22;14939;43.596;1.320;2023-06-14T10:40:01;24.00;63.00
27506;DHT22;14939;43.596;1.320;2023-06-14T10:42:31;24.30;59.70
27506;DHT22;14939;43.596;1.320;2023-06-14T10:44:57;24.40;59.10
27506;DHT22;14939;43.596;1.320;2023-06-14T10:50:11;24.00;55.30
27506;DHT22;14939;43.596;1.320;2023-06-14T10:52:41;24.00;56.80
27506;DHT22;14939;43.596;1.320;2023-06-14T10:55:14;24.40;56.30
27506;DHT22;14939;43.596;1.320;2023-06-14T10:57:49;24.60;57.00
27506;DHT22;14939;43.596;1.320;2023-06-14T11:00:22;24.30;57.70
27506;DHT22;14939;43.596;1.320;2023-06-14T11:05:57;24.20;55.90
27506;DHT22;14939;43.596;1.320;2023-06-14T11:09:04;24.80;55.70
27506;DHT22;14939;43.596;1.320;2023-06-14T11:11:36;24.60;54.70
27506;DHT22;14939;43.596;1.320;2023-06-14T11:14:04;24.40;55.40
27506;DHT22;14939;43.596;1.320;2023-06-14T11:16:30;24.30;55.80
27506;DHT22;14939;43.596;1.320;2023-06-14T11:19:00;24.20;55.00
27506;DHT22;14939;43.596;1.320;2023-06-14T11:21:26;24.60;54.10
27506;DHT22;14939;43.596;1.320;2023-06-14T11:23:57;24.80;54.90
27506;DHT22;14939;43.596;1.320;2023-06-14T11:26:29;25.10;54.50
27506;DHT22;14939;43.596;1.320;2023-06-14T11:28:57;24.70;51.80
27506;DHT22;14939;43.596;1.320;2023-06-14T11:31:23;24.90;51.70
27506;DHT22;14939;43.596;1.320;2023-06-14T11:33:54;25.10;52.40
27506;DHT22;14939;43.596;1.320;2023-06-14T11:36:21;25.00;51.00
27506;DHT22;14939;43.596;1.320;2023-06-14T11:38:46;24.90;52.40
27506;DHT22;14939;43.596;1.320;2023-06-14T11:41:12;24.80;52.80
27506;DHT22;14939;43.596;1.320;2023-06-14T11:43:37;25.00;51.90
27506;DHT22;14939;43.596;1.320;2023-06-14T11:46:11;25.00;51.40
27506;DHT22;14939;43.596;1.320;2023-06-14T11:48:42;24.70;50.90
27506;DHT22;14939;43.596;1.320;2023-06-14T11:51:08;25.20;52.80
27506;DHT22;14939;43.596;1.320;2023-06-14T11:53:34;25.50;50.40
27506;DHT22;14939;43.596;1.320;2023-06-14T11:56:00;25.40;49.90
27506;DHT22;14939;43.596;1.320;2023-06-14T11:58:26;24.80;50.00
27506;DHT22;14939;43.596;1.320;2023-06-14T12:00:53;24.80;50.70
27506;DHT22;14939;43.596;1.320;2023-06-14T12:03:26;25.40;50.50
27506;DHT22;14939;43.596;1.320;2023-06-14T12:06:07;25.30;51.80
27506;DHT22;14939;43.596;1.320;2023-06-14T12:08:35;25.00;48.80
27506;DHT22;14939;43.596;1.320;2023-06-14T12:11:04;25.00;50.30
27506;DHT22;14939;43.596;1.320;2023-06-14T12:13:31;25.40;49.50
27506;DHT22;14939;43.596;1.320;2023-06-14T12:15:57;25.60;47.80
27506;DHT22;14939;43.596;1.320;2023-06-14T12:18:34;25.20;48.80
27506;DHT22;14939;43.596;1.320;2023-06-14T12:21:00;25.30;48.20
27506;DHT22;14939;43.596;1.320;2023-06-14T12:23:45;25.40;45.50
27506;DHT22;14939;43.596;1.320;2023-06-14T12:26:16;25.50;43.80
27506;DHT22;14939;43.596;1.320;2023-06-14T12:28:42;25.60;44.50
27506;DHT22;14939;43.596;1.320;2023-06-14T12:31:10;25.50;46.60
27506;DHT22;14939;43.596;1.320;2023-06-14T12:33:36;25.60;47.10
27506;DHT22;14939;43.596;1.320;2023-06-14T12:36:07;25.80;46.60
27506;DHT22;14939;43.596;1.320;2023-06-14T12:38:33;26.50;42.90
27506;DHT22;14939;43.596;1.320;2023-06-14T12:40:59;26.40;43.10
27506;DHT22;14939;43.596;1.320;2023-06-14T12:43:25;26.40;43.40
27506;DHT22;14939;43.596;1.320;2023-06-14T12:45:51;26.20;42.20
27506;DHT22;14939;43.596;1.320;2023-06-14T12:48:17;26.30;37.90
27506;DHT22;14939;43.596;1.320;2023-06-14T12:50:43;26.10;41.10
27506;DHT22;14939;43.596;1.320;2023-06-14T12:53:09;25.40;43.60
27506;DHT22;14939;43.596;1.320;2023-06-14T12:55:34;25.10;46.30
27506;DHT22;14939;43.596;1.320;2023-06-14T12:58:00;25.20;46.10
27506;DHT22;14939;43.596;1.320;2023-06-14T13:00:26;25.40;45.40
27506;DHT22;14939;43.596;1.320;2023-06-14T13:02:52;25.70;43.90
27506;DHT22;14939;43.596;1.320;2023-06-14T13:05:18;26.10;41.10
27506;DHT22;14939;43.596;1.320;2023-06-14T13:07:44;26.20;42.70
27506;DHT22;14939;43.596;1.320;2023-06-14T13:10:10;26.00;40.80
27506;DHT22;14939;43.596;1.320;2023-06-14T13:12:36;26.10;41.10
27506;DHT22;14939;43.596;1.320;2023-06-14T13:15:02;26.30;40.00
27506;DHT22;14939;43.596;1.320;2023-06-14T13:17:28;26.40;39.10
27506;DHT22;14939;43.596;1.320;2023-06-14T13:19:53;26.50;39.70
27506;DHT22;14939;43.596;1.320;2023-06-14T13:22:19;26.20;39.40
27506;DHT22;14939;43.596;1.320;2023-06-14T13:24:45;26.10;40.50
27506;DHT22;14939;43.596;1.320;2023-06-14T13:27:11;26.50;39.80
27506;DHT22;14939;43.596;1.320;2023-06-14T13:29:39;26.50;38.00
27506;DHT22;14939;43.596;1.320;2023-06-14T13:32:05;26.10;41.00
27506;DHT22;14939;43.596;1.320;2023-06-14T13:34:31;26.10;43.00
27506;DHT22;14939;43.596;1.320;2023-06-14T13:36:57;26.00;40.00
27506;DHT22;14939;43.596;1.320;2023-06-14T13:39:25;25.90;42.10
27506;DHT22;14939;43.596;1.320;2023-06-14T13:41:50;26.00;42.30
27506;DHT22;14939;43.596;1.320;2023-06-14T13:44:16;26.10;43.40
27506;DHT22;14939;43.596;1.320;2023-06-14T13:46:44;26.20;43.50
27506;DHT22;14939;43.596;1.320;2023-06-14T13:49:10;25.80;42.60
27506;DHT22;14939;43.596;1.320;2023-06-14T13:51:37;25.40;43.00
27506;DHT22;14939;43.596;1.320;2023-06-14T13:54:03;25.20;45.90
27506;DHT22;14939;43.596;1.320;2023-06-14T13:56:29;25.10;47.20
27506;DHT22;14939;43.596;1.320;2023-06-14T13:58:55;25.00;45.80
27506;DHT22;14939;43.596;1.320;2023-06-14T14:01:21;25.30;45.90
27506;DHT22;14939;43.596;1.320;2023-06-14T14:03:48;25.40;48.10
27506;DHT22;14939;43.596;1.320;2023-06-14T14:06:15;25.10;48.60
27506;DHT22;14939;43.596;1.320;2023-06-14T14:08:42;24.80;49.60
27506;DHT22;14939;43.596;1.320;2023-06-14T14:11:08;25.20;50.50
27506;DHT22;14939;43.596;1.320;2023-06-14T14:13:35;25.60;47.80
27506;DHT22;14939;43.596;1.320;2023-06-14T14:16:05;25.80;47.80
27506;DHT22;14939;43.596;1.320;2023-06-14T14:18:30;26.00;46.30
27506;DHT22;14939;43.596;1.320;2023-06-14T14:20:58;25.20;48.70
27506;DHT22;14939;43.596;1.320;2023-06-14T14:23:24;24.80;50.70
27506;DHT22;14939;43.596;1.320;2023-06-14T14:25:50;24.50;51.10
27506;DHT22;14939;43.596;1.320;2023-06-14T14:28:15;24.60;51.70
27506;DHT22;14939;43.596;1.320;2023-06-14T14:30:42;25.00;51.40
27506;DHT22;14939;43.596;1.320;2023-06-14T14:33:08;25.10;49.80
27506;DHT22;14939;43.596;1.320;2023-06-14T14:35:34;25.50;49.40
27506;DHT22;14939;43.596;1.320;2023-06-14T14:38:00;25.70;48.40
27506;DHT22;14939;43.596;1.320;2023-06-14T14:40:26;25.70;48.10
27506;DHT22;14939;43.596;1.320;2023-06-14T14:42:52;25.90;47.80
27506;DHT22;14939;43.596;1.320;2023-06-14T14:45:17;26.50;47.90
27506;DHT22;14939;43.596;1.320;2023-06-14T14:47:43;27.20;43.30
27506;DHT22;14939;43.596;1.320;2023-06-14T14:50:09;27.40;42.00
27506;DHT22;14939;43.596;1.320;2023-06-14T14:52:35;29.80;34.90
27506;DHT22;14939;43.596;1.320;2023-06-14T14:55:01;28.70;37.00
27506;DHT22;14939;43.596;1.320;2023-06-14T14:57:27;27.50;38.60
27506;DHT22;14939;43.596;1.320;2023-06-14T14:59:52;25.90;43.40
27506;DHT22;14939;43.596;1.320;2023-06-14T15:02:18;25.20;46.40
27506;DHT22;14939;43.596;1.320;2023-06-14T15:04:45;26.50;44.80
27506;DHT22;14939;43.596;1.320;2023-06-14T15:07:11;28.60;38.80
27506;DHT22;14939;43.596;1.320;2023-06-14T15:09:38;29.60;34.50
27506;DHT22;14939;43.596;1.320;2023-06-14T15:12:04;30.80;32.40
27506;DHT22;14939;43.596;1.320;2023-06-14T15:14:30;31.30;29.30
27506;DHT22;14939;43.596;1.320;2023-06-14T15:16:56;31.60;28.50
27506;DHT22;14939;43.596;1.320;2023-06-14T15:19:23;29.80;29.60
27506;DHT22;14939;43.596;1.320;2023-06-14T15:21:49;30.10;30.80
27506;DHT22;14939;43.596;1.320;2023-06-14T15:24:14;29.20;32.40
27506;DHT22;14939;43.596;1.320;2023-06-14T15:26:40;29.10;33.80
27506;DHT22;14939;43.596;1.320;2023-06-14T15:29:06;29.50;32.70
27506;DHT22;14939;43.596;1.320;2023-06-14T15:31:31;30.20;30.10
27506;DHT22;14939;43.596;1.320;2023-06-14T15:33:57;30.70;28.30
27506;DHT22;14939;43.596;1.320;2023-06-14T15:36:24;30.70;28.40
27506;DHT22;14939;43.596;1.320;2023-06-14T15:38:50;28.80;31.40
27506;DHT22;14939;43.596;1.320;2023-06-14T15:41:16;26.90;37.70
27506;DHT22;14939;43.596;1.320;2023-06-14T15:43:41;25.70;41.80
27506;DHT22;14939;43.596;1.320;2023-06-14T15:46:07;25.90;43.00